sensor_id;sensor_type;location;lat;lon;timestamp;P1;durP1;ratioP1;P2;durP2;ratioP2
45402;SDS011;47427;51.976;5.326;2023-05-28T00:02:49;31.67;;;21.90;;
45402;SDS011;47427;51.976;5.326;2023-05-28T00:06:11;37.22;;;22.33;;
45402;SDS011;47427;51.976;5.326;2023-05-28T00:09:33;32.28;;;21.25;;
45402;SDS011;47427;51.976;5.326;2023-05-28T00:12:56;35.30;;;22.75;;
45402;SDS011;47427;51.976;5.326;2023-05-28T00:16:19;33.65;;;22.17;;
45402;SDS011;47427;51.976;5.326;2023-05-28T00:19:42;29.73;;;22.30;;
45402;SDS011;47427;51.976;5.326;2023-05-28T00:23:24;36.17;;;22.92;;
45402;SDS011;47427;51.976;5.326;2023-05-28T00:26:47;34.63;;;22.67;;
45402;SDS011;47427;51.976;5.326;2023-05-28T00:30:10;34.40;;;22.80;;
45402;SDS011;47427;51.976;5.326;2023-05-28T00:33:31;33.78;;;22.65;;
45402;SDS011;47427;51.976;5.326;2023-05-28T00:36:54;40.20;;;24.60;;
45402;SDS011;47427;51.976;5.326;2023-05-28T00:40:17;30.63;;;22.98;;
45402;SDS011;47427;51.976;5.326;2023-05-28T00:43:39;32.05;;;23.23;;
45402;SDS011;47427;51.976;5.326;2023-05-28T00:47:02;46.35;;;23.95;;
45402;SDS011;47427;51.976;5.326;2023-05-28T00:50:45;34.83;;;23.48;;
45402;SDS011;47427;51.976;5.326;2023-05-28T00:54:08;30.17;;;23.48;;
45402;SDS011;47427;51.976;5.326;2023-05-28T00:57:31;38.33;;;22.63;;
45402;SDS011;47427;51.976;5.326;2023-05-28T01:00:53;37.60;;;23.83;;
45402;SDS011;47427;51.976;5.326;2023-05-28T01:04:16;38.25;;;23.30;;
45402;SDS011;47427;51.976;5.326;2023-05-28T01:07:39;30.65;;;22.40;;
45402;SDS011;47427;51.976;5.326;2023-05-28T01:11:01;34.45;;;23.02;;
45402;SDS011;47427;51.976;5.326;2023-05-28T01:14:24;30.67;;;23.38;;
45402;SDS011;47427;51.976;5.326;2023-05-28T01:17:48;35.88;;;25.00;;
45402;SDS011;47427;51.976;5.326;2023-05-28T01:21:11;34.35;;;24.17;;
45402;SDS011;47427;51.976;5.326;2023-05-28T01:24:35;37.60;;;24.80;;
45402;SDS011;47427;51.976;5.326;2023-05-28T01:28:01;38.85;;;23.48;;
45402;SDS011;47427;51.976;5.326;2023-05-28T01:31:24;32.33;;;22.70;;
45402;SDS011;47427;51.976;5.326;2023-05-28T01:34:48;36.53;;;24.67;;
45402;SDS011;47427;51.976;5.326;2023-05-28T01:38:10;40.00;;;24.70;;
45402;SDS011;47427;51.976;5.326;2023-05-28T01:41:35;36.60;;;25.83;;
45402;SDS011;47427;51.976;5.326;2023-05-28T01:44:57;32.13;;;24.40;;
45402;SDS011;47427;51.976;5.326;2023-05-28T01:48:20;30.60;;;24.55;;
45402;SDS011;47427;51.976;5.326;2023-05-28T01:51:45;30.00;;;23.23;;
45402;SDS011;47427;51.976;5.326;2023-05-28T01:55:08;35.85;;;23.80;;
45402;SDS011;47427;51.976;5.326;2023-05-28T01:58:32;35.55;;;23.85;;
45402;SDS011;47427;51.976;5.326;2023-05-28T02:01:54;31.02;;;23.70;;
45402;SDS011;47427;51.976;5.326;2023-05-28T02:05:18;33.90;;;24.48;;
45402;SDS011;47427;51.976;5.326;2023-05-28T02:08:39;29.85;;;23.20;;
45402;SDS011;47427;51.976;5.326;2023-05-28T02:12:02;31.17;;;23.50;;
45402;SDS011;47427;51.976;5.326;2023-05-28T02:15:24;32.63;;;23.92;;
45402;SDS011;47427;51.976;5.326;2023-05-28T02:18:49;41.15;;;24.75;;
45402;SDS011;47427;51.976;5.326;2023-05-28T02:22:16;31.35;;;23.95;;
45402;SDS011;47427;51.976;5.326;2023-05-28T02:25:38;36.08;;;25.02;;
45402;SDS011;47427;51.976;5.326;2023-05-28T02:29:00;35.17;;;25.63;;
45402;SDS011;47427;51.976;5.326;2023-05-28T02:32:26;38.63;;;24.63;;
45402;SDS011;47427;51.976;5.326;2023-05-28T02:35:47;42.03;;;27.08;;
45402;SDS011;47427;51.976;5.326;2023-05-28T02:39:10;35.42;;;24.08;;
45402;SDS011;47427;51.976;5.326;2023-05-28T02:42:32;35.63;;;25.13;;
45402;SDS011;47427;51.976;5.326;2023-05-28T02:45:55;41.30;;;26.00;;
45402;SDS011;47427;51.976;5.326;2023-05-28T02:49:19;33.45;;;25.15;;
45402;SDS011;47427;51.976;5.326;2023-05-28T02:52:42;32.70;;;25.00;;
45402;SDS011;47427;51.976;5.326;2023-05-28T02:56:04;39.17;;;26.80;;
45402;SDS011;47427;51.976;5.326;2023-05-28T02:59:30;36.08;;;24.23;;
45402;SDS011;47427;51.976;5.326;2023-05-28T03:02:52;35.55;;;24.90;;
45402;SDS011;47427;51.976;5.326;2023-05-28T03:06:15;43.53;;;26.23;;
45402;SDS011;47427;51.976;5.326;2023-05-28T03:09:42;32.30;;;25.98;;
45402;SDS011;47427;51.976;5.326;2023-05-28T03:13:04;31.25;;;24.05;;
45402;SDS011;47427;51.976;5.326;2023-05-28T03:16:27;42.33;;;25.27;;
45402;SDS011;47427;51.976;5.326;2023-05-28T03:19:49;35.00;;;25.63;;
45402;SDS011;47427;51.976;5.326;2023-05-28T03:23:14;43.95;;;28.63;;
45402;SDS011;47427;51.976;5.326;2023-05-28T03:27:00;42.20;;;27.37;;
45402;SDS011;47427;51.976;5.326;2023-05-28T03:30:23;30.73;;;25.38;;
45402;SDS011;47427;51.976;5.326;2023-05-28T03:33:49;31.80;;;24.98;;
45402;SDS011;47427;51.976;5.326;2023-05-28T03:37:12;35.83;;;26.83;;
45402;SDS011;47427;51.976;5.326;2023-05-28T03:40:34;38.97;;;25.92;;
45402;SDS011;47427;51.976;5.326;2023-05-28T03:43:57;34.63;;;27.00;;
45402;SDS011;47427;51.976;5.326;2023-05-28T03:47:19;29.20;;;26.15;;
45402;SDS011;47427;51.976;5.326;2023-05-28T03:50:42;39.13;;;27.27;;
45402;SDS011;47427;51.976;5.326;2023-05-28T03:54:05;32.45;;;27.63;;
45402;SDS011;47427;51.976;5.326;2023-05-28T03:57:27;37.50;;;29.10;;
45402;SDS011;47427;51.976;5.326;2023-05-28T04:00:51;34.00;;;27.23;;
45402;SDS011;47427;51.976;5.326;2023-05-28T04:04:16;34.67;;;27.98;;
45402;SDS011;47427;51.976;5.326;2023-05-28T04:07:39;31.10;;;26.75;;
45402;SDS011;47427;51.976;5.326;2023-05-28T04:11:00;33.83;;;27.45;;
45402;SDS011;47427;51.976;5.326;2023-05-28T04:14:24;39.70;;;26.35;;
45402;SDS011;47427;51.976;5.326;2023-05-28T04:17:47;36.05;;;28.60;;
45402;SDS011;47427;51.976;5.326;2023-05-28T04:21:10;31.92;;;26.83;;
45402;SDS011;47427;51.976;5.326;2023-05-28T04:24:33;40.78;;;26.88;;
45402;SDS011;47427;51.976;5.326;2023-05-28T04:28:15;34.70;;;27.13;;
45402;SDS011;47427;51.976;5.326;2023-05-28T04:31:37;37.08;;;29.08;;
45402;SDS011;47427;51.976;5.326;2023-05-28T04:35:01;34.03;;;27.60;;
45402;SDS011;47427;51.976;5.326;2023-05-28T04:38:25;36.83;;;27.50;;
45402;SDS011;47427;51.976;5.326;2023-05-28T04:41:52;32.22;;;27.23;;
45402;SDS011;47427;51.976;5.326;2023-05-28T04:45:15;32.83;;;26.33;;
45402;SDS011;47427;51.976;5.326;2023-05-28T04:48:40;33.95;;;27.05;;
45402;SDS011;47427;51.976;5.326;2023-05-28T04:52:02;39.88;;;27.77;;
45402;SDS011;47427;51.976;5.326;2023-05-28T04:55:25;35.05;;;26.45;;
45402;SDS011;47427;51.976;5.326;2023-05-28T04:58:48;41.20;;;26.23;;
45402;SDS011;47427;51.976;5.326;2023-05-28T05:02:09;33.50;;;27.23;;
45402;SDS011;47427;51.976;5.326;2023-05-28T05:05:32;35.22;;;28.10;;
45402;SDS011;47427;51.976;5.326;2023-05-28T05:08:55;40.78;;;27.52;;
45402;SDS011;47427;51.976;5.326;2023-05-28T05:12:17;35.60;;;27.38;;
45402;SDS011;47427;51.976;5.326;2023-05-28T05:15:40;31.00;;;27.67;;
45402;SDS011;47427;51.976;5.326;2023-05-28T05:19:02;37.08;;;28.95;;
45402;SDS011;47427;51.976;5.326;2023-05-28T05:22:24;35.53;;;29.48;;
45402;SDS011;47427;51.976;5.326;2023-05-28T05:25:47;42.58;;;33.28;;
45402;SDS011;47427;51.976;5.326;2023-05-28T05:29:09;41.85;;;33.53;;
45402;SDS011;47427;51.976;5.326;2023-05-28T05:32:32;50.22;;;41.33;;
45402;SDS011;47427;51.976;5.326;2023-05-28T05:35:54;62.50;;;52.45;;
45402;SDS011;47427;51.976;5.326;2023-05-28T05:39:39;69.50;;;53.80;;
45402;SDS011;47427;51.976;5.326;2023-05-28T05:43:29;67.03;;;50.45;;
45402;SDS011;47427;51.976;5.326;2023-05-28T05:46:52;55.13;;;43.92;;
45402;SDS011;47427;51.976;5.326;2023-05-28T05:50:15;47.30;;;38.80;;
45402;SDS011;47427;51.976;5.326;2023-05-28T05:53:39;46.83;;;36.90;;
45402;SDS011;47427;51.976;5.326;2023-05-28T05:57:02;43.72;;;34.55;;
45402;SDS011;47427;51.976;5.326;2023-05-28T06:00:26;50.72;;;31.50;;
45402;SDS011;47427;51.976;5.326;2023-05-28T06:03:53;33.63;;;29.25;;
45402;SDS011;47427;51.976;5.326;2023-05-28T06:07:27;32.85;;;28.08;;
45402;SDS011;47427;51.976;5.326;2023-05-28T06:11:04;38.35;;;28.20;;
45402;SDS011;47427;51.976;5.326;2023-05-28T06:14:26;32.25;;;26.10;;
45402;SDS011;47427;51.976;5.326;2023-05-28T06:17:50;30.40;;;25.88;;
45402;SDS011;47427;51.976;5.326;2023-05-28T06:21:13;32.75;;;25.17;;
45402;SDS011;47427;51.976;5.326;2023-05-28T06:24:36;27.63;;;24.70;;
45402;SDS011;47427;51.976;5.326;2023-05-28T06:27:59;27.83;;;24.85;;
45402;SDS011;47427;51.976;5.326;2023-05-28T06:31:22;28.70;;;23.55;;
45402;SDS011;47427;51.976;5.326;2023-05-28T06:34:45;27.55;;;24.55;;
45402;SDS011;47427;51.976;5.326;2023-05-28T06:38:07;30.75;;;24.08;;
45402;SDS011;47427;51.976;5.326;2023-05-28T06:41:30;25.92;;;23.38;;
45402;SDS011;47427;51.976;5.326;2023-05-28T06:44:53;33.85;;;25.05;;
45402;SDS011;47427;51.976;5.326;2023-05-28T06:48:15;27.58;;;24.65;;
45402;SDS011;47427;51.976;5.326;2023-05-28T06:51:37;30.40;;;23.95;;
45402;SDS011;47427;51.976;5.326;2023-05-28T06:54:59;27.52;;;23.73;;
45402;SDS011;47427;51.976;5.326;2023-05-28T06:58:24;30.60;;;23.55;;
45402;SDS011;47427;51.976;5.326;2023-05-28T07:02:07;30.63;;;24.38;;
45402;SDS011;47427;51.976;5.326;2023-05-28T07:05:41;30.80;;;24.02;;
45402;SDS011;47427;51.976;5.326;2023-05-28T07:09:04;27.33;;;23.90;;
45402;SDS011;47427;51.976;5.326;2023-05-28T07:12:26;27.75;;;24.08;;
45402;SDS011;47427;51.976;5.326;2023-05-28T07:16:08;25.13;;;22.55;;
45402;SDS011;47427;51.976;5.326;2023-05-28T07:19:30;28.95;;;24.00;;
45402;SDS011;47427;51.976;5.326;2023-05-28T07:22:53;25.25;;;22.02;;
45402;SDS011;47427;51.976;5.326;2023-05-28T07:26:16;54.25;;;24.92;;
45402;SDS011;47427;51.976;5.326;2023-05-28T07:29:39;28.00;;;23.00;;
45402;SDS011;47427;51.976;5.326;2023-05-28T07:33:06;25.77;;;22.58;;
45402;SDS011;47427;51.976;5.326;2023-05-28T07:36:28;26.58;;;22.67;;
45402;SDS011;47427;51.976;5.326;2023-05-28T07:39:51;25.10;;;22.55;;
45402;SDS011;47427;51.976;5.326;2023-05-28T07:43:14;25.00;;;22.23;;
45402;SDS011;47427;51.976;5.326;2023-05-28T07:46:36;23.88;;;21.48;;
45402;SDS011;47427;51.976;5.326;2023-05-28T07:50:05;26.30;;;22.40;;
45402;SDS011;47427;51.976;5.326;2023-05-28T07:53:56;27.67;;;23.35;;
45402;SDS011;47427;51.976;5.326;2023-05-28T07:57:17;24.63;;;22.08;;
45402;SDS011;47427;51.976;5.326;2023-05-28T08:00:41;25.88;;;22.98;;
45402;SDS011;47427;51.976;5.326;2023-05-28T08:04:03;24.70;;;22.08;;
45402;SDS011;47427;51.976;5.326;2023-05-28T08:07:31;24.85;;;21.80;;
45402;SDS011;47427;51.976;5.326;2023-05-28T08:10:54;24.05;;;21.15;;
45402;SDS011;47427;51.976;5.326;2023-05-28T08:14:15;23.25;;;20.88;;
45402;SDS011;47427;51.976;5.326;2023-05-28T08:17:38;23.20;;;20.80;;
45402;SDS011;47427;51.976;5.326;2023-05-28T08:21:09;24.20;;;19.77;;
45402;SDS011;47427;51.976;5.326;2023-05-28T08:24:32;24.27;;;21.35;;
45402;SDS011;47427;51.976;5.326;2023-05-28T08:27:54;23.85;;;21.27;;
45402;SDS011;47427;51.976;5.326;2023-05-28T08:31:18;23.40;;;20.90;;
45402;SDS011;47427;51.976;5.326;2023-05-28T08:34:53;22.88;;;20.52;;
45402;SDS011;47427;51.976;5.326;2023-05-28T08:38:15;25.13;;;20.88;;
45402;SDS011;47427;51.976;5.326;2023-05-28T08:41:42;22.80;;;20.45;;
45402;SDS011;47427;51.976;5.326;2023-05-28T08:45:05;22.55;;;20.40;;
45402;SDS011;47427;51.976;5.326;2023-05-28T08:48:35;21.27;;;19.27;;
45402;SDS011;47427;51.976;5.326;2023-05-28T08:51:59;22.98;;;20.45;;
45402;SDS011;47427;51.976;5.326;2023-05-28T08:55:25;22.38;;;20.23;;
45402;SDS011;47427;51.976;5.326;2023-05-28T08:58:56;21.95;;;19.90;;
45402;SDS011;47427;51.976;5.326;2023-05-28T09:02:25;21.15;;;19.25;;
45402;SDS011;47427;51.976;5.326;2023-05-28T09:05:48;21.00;;;19.00;;
45402;SDS011;47427;51.976;5.326;2023-05-28T09:09:13;21.48;;;19.33;;
45402;SDS011;47427;51.976;5.326;2023-05-28T09:12:44;21.63;;;19.33;;
45402;SDS011;47427;51.976;5.326;2023-05-28T09:16:22;21.92;;;19.55;;
45402;SDS011;47427;51.976;5.326;2023-05-28T09:23:37;26.13;;;20.42;;
45402;SDS011;47427;51.976;5.326;2023-05-28T09:27:27;25.17;;;20.10;;
45402;SDS011;47427;51.976;5.326;2023-05-28T09:30:49;22.35;;;20.15;;
45402;SDS011;47427;51.976;5.326;2023-05-28T09:34:31;22.88;;;20.60;;
45402;SDS011;47427;51.976;5.326;2023-05-28T09:38:04;23.58;;;18.92;;
45402;SDS011;47427;51.976;5.326;2023-05-28T09:41:50;21.35;;;19.10;;
45402;SDS011;47427;51.976;5.326;2023-05-28T09:45:29;22.42;;;20.13;;
45402;SDS011;47427;51.976;5.326;2023-05-28T09:48:51;23.67;;;21.10;;
45402;SDS011;47427;51.976;5.326;2023-05-28T09:52:16;23.65;;;21.33;;
45402;SDS011;47427;51.976;5.326;2023-05-28T09:55:42;24.98;;;20.75;;
45402;SDS011;47427;51.976;5.326;2023-05-28T09:59:06;21.57;;;19.47;;
45402;SDS011;47427;51.976;5.326;2023-05-28T10:02:32;22.05;;;19.88;;
45402;SDS011;47427;51.976;5.326;2023-05-28T10:06:32;21.95;;;19.83;;
45402;SDS011;47427;51.976;5.326;2023-05-28T10:09:56;23.08;;;20.67;;
45402;SDS011;47427;51.976;5.326;2023-05-28T10:13:22;22.75;;;20.58;;
45402;SDS011;47427;51.976;5.326;2023-05-28T10:16:43;22.58;;;20.48;;
45402;SDS011;47427;51.976;5.326;2023-05-28T10:20:07;22.27;;;20.07;;
45402;SDS011;47427;51.976;5.326;2023-05-28T10:23:32;22.20;;;18.63;;
45402;SDS011;47427;51.976;5.326;2023-05-28T10:26:54;23.25;;;19.83;;
45402;SDS011;47427;51.976;5.326;2023-05-28T10:30:33;22.10;;;19.05;;
45402;SDS011;47427;51.976;5.326;2023-05-28T10:33:58;26.73;;;19.98;;
45402;SDS011;47427;51.976;5.326;2023-05-28T10:37:23;21.00;;;18.80;;
45402;SDS011;47427;51.976;5.326;2023-05-28T10:40:46;23.80;;;19.77;;
45402;SDS011;47427;51.976;5.326;2023-05-28T10:44:09;23.15;;;20.75;;
45402;SDS011;47427;51.976;5.326;2023-05-28T10:50:57;22.77;;;20.50;;
45402;SDS011;47427;51.976;5.326;2023-05-28T10:57:46;22.00;;;19.80;;
45402;SDS011;47427;51.976;5.326;2023-05-28T11:04:34;21.05;;;19.02;;
45402;SDS011;47427;51.976;5.326;2023-05-28T11:07:56;21.80;;;19.42;;
45402;SDS011;47427;51.976;5.326;2023-05-28T11:11:20;23.57;;;20.33;;
45402;SDS011;47427;51.976;5.326;2023-05-28T11:14:43;23.55;;;19.80;;
45402;SDS011;47427;51.976;5.326;2023-05-28T11:18:05;21.23;;;19.05;;
45402;SDS011;47427;51.976;5.326;2023-05-28T11:21:30;22.00;;;19.70;;
45402;SDS011;47427;51.976;5.326;2023-05-28T11:24:57;21.15;;;19.05;;
45402;SDS011;47427;51.976;5.326;2023-05-28T11:28:31;22.95;;;20.55;;
45402;SDS011;47427;51.976;5.326;2023-05-28T11:31:54;20.67;;;18.73;;
45402;SDS011;47427;51.976;5.326;2023-05-28T11:35:17;25.35;;;19.45;;
45402;SDS011;47427;51.976;5.326;2023-05-28T11:38:40;22.05;;;19.85;;
45402;SDS011;47427;51.976;5.326;2023-05-28T11:42:02;20.45;;;18.55;;
45402;SDS011;47427;51.976;5.326;2023-05-28T11:45:44;21.05;;;18.92;;
45402;SDS011;47427;51.976;5.326;2023-05-28T11:49:07;22.15;;;19.65;;
45402;SDS011;47427;51.976;5.326;2023-05-28T11:52:28;21.65;;;19.48;;
45402;SDS011;47427;51.976;5.326;2023-05-28T11:55:50;22.23;;;19.95;;
45402;SDS011;47427;51.976;5.326;2023-05-28T11:59:12;22.25;;;20.10;;
45402;SDS011;47427;51.976;5.326;2023-05-28T12:02:33;21.13;;;19.27;;
45402;SDS011;47427;51.976;5.326;2023-05-28T12:05:57;21.77;;;19.55;;
45402;SDS011;47427;51.976;5.326;2023-05-28T12:12:46;19.88;;;17.98;;
45402;SDS011;47427;51.976;5.326;2023-05-28T12:16:09;21.60;;;19.35;;
45402;SDS011;47427;51.976;5.326;2023-05-28T12:19:32;21.07;;;18.83;;
45402;SDS011;47427;51.976;5.326;2023-05-28T12:23:06;25.83;;;19.63;;
45402;SDS011;47427;51.976;5.326;2023-05-28T12:26:52;22.15;;;19.80;;
45402;SDS011;47427;51.976;5.326;2023-05-28T12:30:15;21.40;;;19.23;;
45402;SDS011;47427;51.976;5.326;2023-05-28T12:33:37;21.50;;;19.30;;
45402;SDS011;47427;51.976;5.326;2023-05-28T12:37:00;22.20;;;19.77;;
45402;SDS011;47427;51.976;5.326;2023-05-28T12:40:24;21.83;;;19.52;;
45402;SDS011;47427;51.976;5.326;2023-05-28T12:43:46;22.25;;;20.13;;
45402;SDS011;47427;51.976;5.326;2023-05-28T12:47:08;20.90;;;18.75;;
45402;SDS011;47427;51.976;5.326;2023-05-28T12:50:31;19.60;;;17.70;;
45402;SDS011;47427;51.976;5.326;2023-05-28T12:53:54;19.83;;;16.88;;
45402;SDS011;47427;51.976;5.326;2023-05-28T12:57:16;20.75;;;18.48;;
45402;SDS011;47427;51.976;5.326;2023-05-28T13:00:40;21.83;;;19.63;;
45402;SDS011;47427;51.976;5.326;2023-05-28T13:04:02;20.73;;;18.50;;
45402;SDS011;47427;51.976;5.326;2023-05-28T13:07:24;19.85;;;17.95;;
45402;SDS011;47427;51.976;5.326;2023-05-28T13:10:47;21.88;;;18.75;;
45402;SDS011;47427;51.976;5.326;2023-05-28T13:14:10;21.27;;;19.35;;
45402;SDS011;47427;51.976;5.326;2023-05-28T13:17:33;21.15;;;19.23;;
45402;SDS011;47427;51.976;5.326;2023-05-28T13:20:56;20.73;;;18.67;;
45402;SDS011;47427;51.976;5.326;2023-05-28T13:24:18;19.67;;;17.92;;
45402;SDS011;47427;51.976;5.326;2023-05-28T13:27:41;21.35;;;19.05;;
45402;SDS011;47427;51.976;5.326;2023-05-28T13:31:04;21.65;;;19.27;;
45402;SDS011;47427;51.976;5.326;2023-05-28T13:34:25;22.15;;;19.67;;
45402;SDS011;47427;51.976;5.326;2023-05-28T13:37:48;20.92;;;18.88;;
45402;SDS011;47427;51.976;5.326;2023-05-28T13:41:11;20.15;;;18.35;;
45402;SDS011;47427;51.976;5.326;2023-05-28T13:44:34;22.48;;;20.25;;
45402;SDS011;47427;51.976;5.326;2023-05-28T13:47:57;20.17;;;18.15;;
45402;SDS011;47427;51.976;5.326;2023-05-28T13:51:20;20.85;;;18.38;;
45402;SDS011;47427;51.976;5.326;2023-05-28T13:54:42;20.02;;;18.15;;
45402;SDS011;47427;51.976;5.326;2023-05-28T13:58:04;24.20;;;19.10;;
45402;SDS011;47427;51.976;5.326;2023-05-28T14:01:27;19.67;;;17.77;;
45402;SDS011;47427;51.976;5.326;2023-05-28T14:04:49;20.38;;;17.83;;
45402;SDS011;47427;51.976;5.326;2023-05-28T14:08:12;23.83;;;18.50;;
45402;SDS011;47427;51.976;5.326;2023-05-28T14:11:34;21.50;;;19.27;;
45402;SDS011;47427;51.976;5.326;2023-05-28T14:14:56;21.67;;;19.00;;
45402;SDS011;47427;51.976;5.326;2023-05-28T14:18:19;20.80;;;18.63;;
45402;SDS011;47427;51.976;5.326;2023-05-28T14:21:41;21.17;;;19.08;;
45402;SDS011;47427;51.976;5.326;2023-05-28T14:25:05;27.77;;;21.27;;
45402;SDS011;47427;51.976;5.326;2023-05-28T14:28:28;21.23;;;19.02;;
45402;SDS011;47427;51.976;5.326;2023-05-28T14:31:51;23.35;;;18.48;;
45402;SDS011;47427;51.976;5.326;2023-05-28T14:35:14;21.00;;;18.75;;
45402;SDS011;47427;51.976;5.326;2023-05-28T14:38:36;20.95;;;18.55;;
45402;SDS011;47427;51.976;5.326;2023-05-28T14:41:59;20.80;;;18.80;;
45402;SDS011;47427;51.976;5.326;2023-05-28T14:45:22;19.85;;;18.00;;
45402;SDS011;47427;51.976;5.326;2023-05-28T14:48:43;21.33;;;19.10;;
45402;SDS011;47427;51.976;5.326;2023-05-28T14:52:25;21.40;;;19.40;;
45402;SDS011;47427;51.976;5.326;2023-05-28T14:55:50;20.05;;;18.35;;
45402;SDS011;47427;51.976;5.326;2023-05-28T14:59:12;21.23;;;19.05;;
45402;SDS011;47427;51.976;5.326;2023-05-28T15:02:34;21.40;;;19.30;;
45402;SDS011;47427;51.976;5.326;2023-05-28T15:05:58;22.00;;;18.85;;
45402;SDS011;47427;51.976;5.326;2023-05-28T15:09:21;20.40;;;18.65;;
45402;SDS011;47427;51.976;5.326;2023-05-28T15:12:44;20.50;;;18.60;;
45402;SDS011;47427;51.976;5.326;2023-05-28T15:16:05;20.00;;;18.15;;
45402;SDS011;47427;51.976;5.326;2023-05-28T15:19:29;19.45;;;17.95;;
45402;SDS011;47427;51.976;5.326;2023-05-28T15:22:52;20.30;;;18.08;;
45402;SDS011;47427;51.976;5.326;2023-05-28T15:26:13;20.38;;;18.73;;
45402;SDS011;47427;51.976;5.326;2023-05-28T15:29:36;20.13;;;18.40;;
45402;SDS011;47427;51.976;5.326;2023-05-28T15:33:06;19.85;;;18.10;;
45402;SDS011;47427;51.976;5.326;2023-05-28T15:36:28;18.70;;;17.30;;
45402;SDS011;47427;51.976;5.326;2023-05-28T15:39:53;19.15;;;17.58;;
45402;SDS011;47427;51.976;5.326;2023-05-28T15:43:17;19.48;;;17.90;;
45402;SDS011;47427;51.976;5.326;2023-05-28T15:46:40;18.58;;;17.25;;
45402;SDS011;47427;51.976;5.326;2023-05-28T15:50:04;18.90;;;17.48;;
45402;SDS011;47427;51.976;5.326;2023-05-28T15:53:26;20.85;;;19.23;;
45402;SDS011;47427;51.976;5.326;2023-05-28T15:56:53;19.52;;;17.92;;
45402;SDS011;47427;51.976;5.326;2023-05-28T16:00:16;19.20;;;17.70;;
45402;SDS011;47427;51.976;5.326;2023-05-28T16:03:38;18.63;;;17.17;;
45402;SDS011;47427;51.976;5.326;2023-05-28T16:07:02;17.98;;;16.70;;
45402;SDS011;47427;51.976;5.326;2023-05-28T16:10:25;20.50;;;18.95;;
45402;SDS011;47427;51.976;5.326;2023-05-28T16:13:47;19.73;;;18.20;;
45402;SDS011;47427;51.976;5.326;2023-05-28T16:17:11;19.75;;;18.05;;
45402;SDS011;47427;51.976;5.326;2023-05-28T16:20:33;20.63;;;19.13;;
45402;SDS011;47427;51.976;5.326;2023-05-28T16:23:57;21.50;;;19.33;;
45402;SDS011;47427;51.976;5.326;2023-05-28T16:27:19;20.30;;;18.50;;
45402;SDS011;47427;51.976;5.326;2023-05-28T16:30:42;19.90;;;18.13;;
45402;SDS011;47427;51.976;5.326;2023-05-28T16:34:05;19.10;;;17.20;;
45402;SDS011;47427;51.976;5.326;2023-05-28T16:37:28;18.40;;;16.77;;
45402;SDS011;47427;51.976;5.326;2023-05-28T16:40:50;19.10;;;17.38;;
45402;SDS011;47427;51.976;5.326;2023-05-28T16:44:13;19.77;;;18.10;;
45402;SDS011;47427;51.976;5.326;2023-05-28T16:47:36;17.27;;;15.60;;
45402;SDS011;47427;51.976;5.326;2023-05-28T16:51:03;18.48;;;16.25;;
45402;SDS011;47427;51.976;5.326;2023-05-28T16:54:26;19.48;;;16.85;;
45402;SDS011;47427;51.976;5.326;2023-05-28T16:57:48;20.52;;;16.70;;
45402;SDS011;47427;51.976;5.326;2023-05-28T17:01:10;17.77;;;15.80;;
45402;SDS011;47427;51.976;5.326;2023-05-28T17:04:52;18.35;;;16.38;;
45402;SDS011;47427;51.976;5.326;2023-05-28T17:08:13;18.98;;;16.38;;
45402;SDS011;47427;51.976;5.326;2023-05-28T17:11:36;19.50;;;16.95;;
45402;SDS011;47427;51.976;5.326;2023-05-28T17:14:58;19.75;;;16.60;;
45402;SDS011;47427;51.976;5.326;2023-05-28T17:18:39;19.98;;;17.80;;
45402;SDS011;47427;51.976;5.326;2023-05-28T17:22:01;18.25;;;16.38;;
45402;SDS011;47427;51.976;5.326;2023-05-28T17:25:22;18.80;;;17.10;;
45402;SDS011;47427;51.976;5.326;2023-05-28T17:28:45;22.17;;;17.15;;
45402;SDS011;47427;51.976;5.326;2023-05-28T17:32:10;20.73;;;16.98;;
45402;SDS011;47427;51.976;5.326;2023-05-28T17:35:33;19.95;;;16.25;;
45402;SDS011;47427;51.976;5.326;2023-05-28T17:39:14;19.67;;;17.35;;
45402;SDS011;47427;51.976;5.326;2023-05-28T17:42:37;18.67;;;16.75;;
45402;SDS011;47427;51.976;5.326;2023-05-28T17:46:00;19.23;;;17.17;;
45402;SDS011;47427;51.976;5.326;2023-05-28T17:49:24;17.52;;;15.73;;
45402;SDS011;47427;51.976;5.326;2023-05-28T17:52:46;17.88;;;16.17;;
45402;SDS011;47427;51.976;5.326;2023-05-28T17:56:09;18.50;;;16.75;;
45402;SDS011;47427;51.976;5.326;2023-05-28T17:59:32;17.58;;;16.10;;
45402;SDS011;47427;51.976;5.326;2023-05-28T18:02:55;17.15;;;15.60;;
45402;SDS011;47427;51.976;5.326;2023-05-28T18:06:20;20.33;;;16.38;;
45402;SDS011;47427;51.976;5.326;2023-05-28T18:09:41;17.88;;;15.90;;
45402;SDS011;47427;51.976;5.326;2023-05-28T18:13:04;19.40;;;16.25;;
45402;SDS011;47427;51.976;5.326;2023-05-28T18:16:27;17.02;;;15.35;;
45402;SDS011;47427;51.976;5.326;2023-05-28T18:19:50;21.55;;;16.00;;
45402;SDS011;47427;51.976;5.326;2023-05-28T18:23:13;19.88;;;16.40;;
45402;SDS011;47427;51.976;5.326;2023-05-28T18:26:35;18.00;;;16.05;;
45402;SDS011;47427;51.976;5.326;2023-05-28T18:29:59;18.65;;;16.77;;
45402;SDS011;47427;51.976;5.326;2023-05-28T18:33:22;17.92;;;15.85;;
45402;SDS011;47427;51.976;5.326;2023-05-28T18:36:46;19.10;;;16.30;;
45402;SDS011;47427;51.976;5.326;2023-05-28T18:40:28;18.00;;;16.25;;
45402;SDS011;47427;51.976;5.326;2023-05-28T18:43:50;26.60;;;16.85;;
45402;SDS011;47427;51.976;5.326;2023-05-28T18:47:14;18.63;;;16.60;;
45402;SDS011;47427;51.976;5.326;2023-05-28T18:50:37;19.95;;;15.75;;
45402;SDS011;47427;51.976;5.326;2023-05-28T18:54:00;19.75;;;15.73;;
45402;SDS011;47427;51.976;5.326;2023-05-28T18:57:23;22.45;;;17.52;;
45402;SDS011;47427;51.976;5.326;2023-05-28T19:00:48;18.38;;;16.13;;
45402;SDS011;47427;51.976;5.326;2023-05-28T19:04:10;24.52;;;17.33;;
45402;SDS011;47427;51.976;5.326;2023-05-28T19:07:33;21.33;;;17.17;;
45402;SDS011;47427;51.976;5.326;2023-05-28T19:10:55;19.08;;;17.20;;
45402;SDS011;47427;51.976;5.326;2023-05-28T19:14:37;20.30;;;16.92;;
45402;SDS011;47427;51.976;5.326;2023-05-28T19:17:58;18.98;;;17.08;;
45402;SDS011;47427;51.976;5.326;2023-05-28T19:21:21;18.30;;;16.40;;
45402;SDS011;47427;51.976;5.326;2023-05-28T19:24:44;21.08;;;17.52;;
45402;SDS011;47427;51.976;5.326;2023-05-28T19:28:07;20.98;;;18.05;;
45402;SDS011;47427;51.976;5.326;2023-05-28T19:31:28;20.10;;;17.92;;
45402;SDS011;47427;51.976;5.326;2023-05-28T19:34:51;25.95;;;18.45;;
45402;SDS011;47427;51.976;5.326;2023-05-28T19:38:13;22.73;;;17.75;;
45402;SDS011;47427;51.976;5.326;2023-05-28T19:41:35;18.42;;;16.80;;
45402;SDS011;47427;51.976;5.326;2023-05-28T19:44:58;24.02;;;18.17;;
45402;SDS011;47427;51.976;5.326;2023-05-28T19:48:20;25.63;;;18.67;;
45402;SDS011;47427;51.976;5.326;2023-05-28T19:51:43;20.17;;;18.05;;
45402;SDS011;47427;51.976;5.326;2023-05-28T19:55:05;20.25;;;18.20;;
45402;SDS011;47427;51.976;5.326;2023-05-28T19:58:27;22.98;;;18.55;;
45402;SDS011;47427;51.976;5.326;2023-05-28T20:01:50;21.20;;;17.33;;
45402;SDS011;47427;51.976;5.326;2023-05-28T20:05:12;18.70;;;16.88;;
45402;SDS011;47427;51.976;5.326;2023-05-28T20:08:33;19.52;;;16.35;;
45402;SDS011;47427;51.976;5.326;2023-05-28T20:11:56;18.80;;;17.05;;
45402;SDS011;47427;51.976;5.326;2023-05-28T20:15:17;19.92;;;16.95;;